sensor_id;sensor_type;location;lat;lon;timestamp;P1;durP1;ratioP1;P2;durP2;ratioP2
65996;SDS011;52765;52.258;21.052;2023-03-16T00:01:26;32.83;;;11.50;;
65996;SDS011;52765;52.258;21.052;2023-03-16T00:03:52;32.75;;;11.88;;
65996;SDS011;52765;52.258;21.052;2023-03-16T00:06:17;30.67;;;11.27;;
65996;SDS011;52765;52.258;21.052;2023-03-16T00:08:43;33.30;;;11.95;;
65996;SDS011;52765;52.258;21.052;2023-03-16T00:11:08;38.47;;;12.48;;
65996;SDS011;52765;52.258;21.052;2023-03-16T00:13:37;33.25;;;12.65;;
65996;SDS011;52765;52.258;21.052;2023-03-16T00:16:02;31.77;;;12.82;;
65996;SDS011;52765;52.258;21.052;2023-03-16T00:18:28;34.38;;;12.35;;
65996;SDS011;52765;52.258;21.052;2023-03-16T00:20:56;33.30;;;12.40;;
65996;SDS011;52765;52.258;21.052;2023-03-16T00:23:26;40.40;;;14.98;;
65996;SDS011;52765;52.258;21.052;2023-03-16T00:25:53;31.50;;;13.68;;
65996;SDS011;52765;52.258;21.052;2023-03-16T00:28:19;35.47;;;13.77;;
65996;SDS011;52765;52.258;21.052;2023-03-16T00:30:46;33.75;;;13.85;;
65996;SDS011;52765;52.258;21.052;2023-03-16T00:33:12;38.60;;;12.95;;
65996;SDS011;52765;52.258;21.052;2023-03-16T00:35:37;34.85;;;13.60;;
65996;SDS011;52765;52.258;21.052;2023-03-16T00:38:03;38.67;;;13.20;;
65996;SDS011;52765;52.258;21.052;2023-03-16T00:40:29;35.22;;;13.48;;
65996;SDS011;52765;52.258;21.052;2023-03-16T00:42:58;31.92;;;12.43;;
65996;SDS011;52765;52.258;21.052;2023-03-16T00:45:23;34.50;;;13.60;;
65996;SDS011;52765;52.258;21.052;2023-03-16T00:47:49;35.75;;;13.93;;
65996;SDS011;52765;52.258;21.052;2023-03-16T00:50:18;36.97;;;14.10;;
65996;SDS011;52765;52.258;21.052;2023-03-16T00:52:46;37.78;;;13.38;;
65996;SDS011;52765;52.258;21.052;2023-03-16T00:55:12;34.72;;;13.07;;
65996;SDS011;52765;52.258;21.052;2023-03-16T00:57:37;29.77;;;11.20;;
65996;SDS011;52765;52.258;21.052;2023-03-16T01:00:03;31.35;;;12.02;;
65996;SDS011;52765;52.258;21.052;2023-03-16T01:02:44;31.77;;;13.30;;
65996;SDS011;52765;52.258;21.052;2023-03-16T01:05:10;31.13;;;12.40;;
65996;SDS011;52765;52.258;21.052;2023-03-16T01:07:40;35.58;;;12.18;;
65996;SDS011;52765;52.258;21.052;2023-03-16T01:10:08;29.92;;;11.95;;
65996;SDS011;52765;52.258;21.052;2023-03-16T01:12:34;30.35;;;12.43;;
65996;SDS011;52765;52.258;21.052;2023-03-16T01:14:59;30.80;;;12.20;;
65996;SDS011;52765;52.258;21.052;2023-03-16T01:17:25;31.88;;;12.43;;
65996;SDS011;52765;52.258;21.052;2023-03-16T01:19:51;36.25;;;12.25;;
65996;SDS011;52765;52.258;21.052;2023-03-16T01:22:17;26.95;;;11.23;;
65996;SDS011;52765;52.258;21.052;2023-03-16T01:24:44;23.30;;;11.23;;
65996;SDS011;52765;52.258;21.052;2023-03-16T01:27:11;35.17;;;12.20;;
65996;SDS011;52765;52.258;21.052;2023-03-16T01:29:37;24.67;;;11.23;;
65996;SDS011;52765;52.258;21.052;2023-03-16T01:32:04;30.13;;;11.77;;
65996;SDS011;52765;52.258;21.052;2023-03-16T01:34:31;29.25;;;11.30;;
65996;SDS011;52765;52.258;21.052;2023-03-16T01:36:57;30.52;;;12.52;;
65996;SDS011;52765;52.258;21.052;2023-03-16T01:39:23;28.00;;;10.52;;
65996;SDS011;52765;52.258;21.052;2023-03-16T01:41:49;29.05;;;10.73;;
65996;SDS011;52765;52.258;21.052;2023-03-16T01:44:22;27.33;;;11.27;;
65996;SDS011;52765;52.258;21.052;2023-03-16T01:46:54;27.90;;;11.23;;
65996;SDS011;52765;52.258;21.052;2023-03-16T01:49:21;32.20;;;11.25;;
65996;SDS011;52765;52.258;21.052;2023-03-16T01:54:22;29.15;;;10.88;;
65996;SDS011;52765;52.258;21.052;2023-03-16T01:59:27;34.13;;;10.23;;
65996;SDS011;52765;52.258;21.052;2023-03-16T02:01:57;31.52;;;10.60;;
65996;SDS011;52765;52.258;21.052;2023-03-16T02:06:49;29.13;;;10.60;;
65996;SDS011;52765;52.258;21.052;2023-03-16T02:09:18;27.38;;;9.88;;
65996;SDS011;52765;52.258;21.052;2023-03-16T02:11:44;25.70;;;8.88;;
65996;SDS011;52765;52.258;21.052;2023-03-16T02:14:11;29.02;;;10.27;;
65996;SDS011;52765;52.258;21.052;2023-03-16T02:16:37;28.60;;;10.00;;
65996;SDS011;52765;52.258;21.052;2023-03-16T02:19:06;33.88;;;11.10;;
65996;SDS011;52765;52.258;21.052;2023-03-16T02:21:48;30.40;;;10.25;;
65996;SDS011;52765;52.258;21.052;2023-03-16T02:24:19;22.80;;;9.23;;
65996;SDS011;52765;52.258;21.052;2023-03-16T02:26:52;26.15;;;9.00;;
65996;SDS011;52765;52.258;21.052;2023-03-16T02:32:05;24.92;;;9.32;;
65996;SDS011;52765;52.258;21.052;2023-03-16T02:34:32;25.88;;;9.02;;
65996;SDS011;52765;52.258;21.052;2023-03-16T02:36:59;27.75;;;9.60;;
65996;SDS011;52765;52.258;21.052;2023-03-16T02:39:25;23.60;;;9.60;;
65996;SDS011;52765;52.258;21.052;2023-03-16T02:41:51;25.55;;;9.07;;
65996;SDS011;52765;52.258;21.052;2023-03-16T02:44:24;20.95;;;8.55;;
65996;SDS011;52765;52.258;21.052;2023-03-16T02:46:53;22.95;;;8.30;;
65996;SDS011;52765;52.258;21.052;2023-03-16T02:49:33;29.52;;;8.65;;
65996;SDS011;52765;52.258;21.052;2023-03-16T02:52:03;21.75;;;8.73;;
65996;SDS011;52765;52.258;21.052;2023-03-16T02:54:30;26.83;;;8.82;;
65996;SDS011;52765;52.258;21.052;2023-03-16T02:56:55;18.20;;;7.75;;
65996;SDS011;52765;52.258;21.052;2023-03-16T02:59:21;24.92;;;8.57;;
65996;SDS011;52765;52.258;21.052;2023-03-16T03:01:47;20.15;;;8.30;;
65996;SDS011;52765;52.258;21.052;2023-03-16T03:04:12;21.60;;;9.02;;
65996;SDS011;52765;52.258;21.052;2023-03-16T03:06:38;23.13;;;8.20;;
65996;SDS011;52765;52.258;21.052;2023-03-16T03:09:05;21.55;;;7.50;;
65996;SDS011;52765;52.258;21.052;2023-03-16T03:11:31;25.13;;;8.00;;
65996;SDS011;52765;52.258;21.052;2023-03-16T03:13:57;22.00;;;8.52;;
65996;SDS011;52765;52.258;21.052;2023-03-16T03:16:22;20.52;;;8.18;;
65996;SDS011;52765;52.258;21.052;2023-03-16T03:18:48;22.50;;;7.25;;
65996;SDS011;52765;52.258;21.052;2023-03-16T03:21:15;18.75;;;7.18;;
65996;SDS011;52765;52.258;21.052;2023-03-16T03:23:41;18.98;;;7.32;;
65996;SDS011;52765;52.258;21.052;2023-03-16T03:26:10;20.25;;;7.57;;
65996;SDS011;52765;52.258;21.052;2023-03-16T03:28:36;21.73;;;7.90;;
65996;SDS011;52765;52.258;21.052;2023-03-16T03:31:05;19.23;;;7.78;;
65996;SDS011;52765;52.258;21.052;2023-03-16T03:33:31;19.45;;;7.03;;
65996;SDS011;52765;52.258;21.052;2023-03-16T03:35:58;29.48;;;8.60;;
65996;SDS011;52765;52.258;21.052;2023-03-16T03:38:26;17.48;;;7.35;;
65996;SDS011;52765;52.258;21.052;2023-03-16T03:40:52;19.25;;;7.35;;
65996;SDS011;52765;52.258;21.052;2023-03-16T03:43:18;21.65;;;8.32;;
65996;SDS011;52765;52.258;21.052;2023-03-16T03:45:45;23.45;;;8.48;;
65996;SDS011;52765;52.258;21.052;2023-03-16T03:48:11;25.58;;;8.43;;
65996;SDS011;52765;52.258;21.052;2023-03-16T03:50:36;35.22;;;9.55;;
65996;SDS011;52765;52.258;21.052;2023-03-16T03:53:03;23.42;;;8.85;;
65996;SDS011;52765;52.258;21.052;2023-03-16T03:55:29;21.52;;;9.38;;
65996;SDS011;52765;52.258;21.052;2023-03-16T03:57:54;25.45;;;9.07;;
65996;SDS011;52765;52.258;21.052;2023-03-16T04:00:20;27.48;;;9.30;;
65996;SDS011;52765;52.258;21.052;2023-03-16T04:02:46;26.98;;;9.48;;
65996;SDS011;52765;52.258;21.052;2023-03-16T04:05:12;23.20;;;9.70;;
65996;SDS011;52765;52.258;21.052;2023-03-16T04:07:38;24.38;;;10.07;;
65996;SDS011;52765;52.258;21.052;2023-03-16T04:10:04;27.17;;;9.60;;
65996;SDS011;52765;52.258;21.052;2023-03-16T04:12:31;26.88;;;10.27;;
65996;SDS011;52765;52.258;21.052;2023-03-16T04:14:56;33.95;;;10.48;;
65996;SDS011;52765;52.258;21.052;2023-03-16T04:17:22;26.25;;;10.68;;
65996;SDS011;52765;52.258;21.052;2023-03-16T04:19:48;28.98;;;10.77;;
65996;SDS011;52765;52.258;21.052;2023-03-16T04:22:14;31.17;;;11.02;;
65996;SDS011;52765;52.258;21.052;2023-03-16T04:24:40;26.75;;;9.95;;
65996;SDS011;52765;52.258;21.052;2023-03-16T04:27:07;30.90;;;10.80;;
65996;SDS011;52765;52.258;21.052;2023-03-16T04:29:35;30.80;;;10.40;;
65996;SDS011;52765;52.258;21.052;2023-03-16T04:32:01;27.50;;;9.60;;
65996;SDS011;52765;52.258;21.052;2023-03-16T04:34:27;27.52;;;9.90;;
65996;SDS011;52765;52.258;21.052;2023-03-16T04:36:52;29.50;;;10.27;;
65996;SDS011;52765;52.258;21.052;2023-03-16T04:39:21;27.35;;;10.00;;
65996;SDS011;52765;52.258;21.052;2023-03-16T04:41:47;22.73;;;9.02;;
65996;SDS011;52765;52.258;21.052;2023-03-16T04:44:13;31.85;;;10.45;;
65996;SDS011;52765;52.258;21.052;2023-03-16T04:46:39;21.02;;;10.25;;
65996;SDS011;52765;52.258;21.052;2023-03-16T04:49:05;24.80;;;9.50;;
65996;SDS011;52765;52.258;21.052;2023-03-16T04:51:34;23.92;;;8.75;;
65996;SDS011;52765;52.258;21.052;2023-03-16T04:54:01;19.95;;;8.68;;
65996;SDS011;52765;52.258;21.052;2023-03-16T04:56:27;26.15;;;9.23;;
65996;SDS011;52765;52.258;21.052;2023-03-16T04:58:53;22.95;;;8.80;;
65996;SDS011;52765;52.258;21.052;2023-03-16T05:01:21;24.55;;;8.90;;
65996;SDS011;52765;52.258;21.052;2023-03-16T05:03:46;25.23;;;10.27;;
65996;SDS011;52765;52.258;21.052;2023-03-16T05:06:13;20.52;;;8.80;;
65996;SDS011;52765;52.258;21.052;2023-03-16T05:08:39;21.08;;;9.35;;
65996;SDS011;52765;52.258;21.052;2023-03-16T05:11:05;25.77;;;9.60;;
65996;SDS011;52765;52.258;21.052;2023-03-16T05:13:30;26.42;;;9.77;;
65996;SDS011;52765;52.258;21.052;2023-03-16T05:15:56;25.30;;;9.45;;
65996;SDS011;52765;52.258;21.052;2023-03-16T05:18:22;28.27;;;9.57;;
65996;SDS011;52765;52.258;21.052;2023-03-16T05:20:51;24.80;;;9.80;;
65996;SDS011;52765;52.258;21.052;2023-03-16T05:23:18;21.50;;;9.10;;
65996;SDS011;52765;52.258;21.052;2023-03-16T05:25:50;25.27;;;9.05;;
65996;SDS011;52765;52.258;21.052;2023-03-16T05:28:16;30.23;;;9.65;;
65996;SDS011;52765;52.258;21.052;2023-03-16T05:30:42;24.63;;;9.48;;
65996;SDS011;52765;52.258;21.052;2023-03-16T05:33:09;25.85;;;9.07;;
65996;SDS011;52765;52.258;21.052;2023-03-16T05:35:34;27.77;;;9.00;;
65996;SDS011;52765;52.258;21.052;2023-03-16T05:38:01;20.85;;;8.30;;
65996;SDS011;52765;52.258;21.052;2023-03-16T05:40:26;24.73;;;9.15;;
65996;SDS011;52765;52.258;21.052;2023-03-16T05:42:56;26.88;;;9.65;;
65996;SDS011;52765;52.258;21.052;2023-03-16T05:45:24;23.70;;;9.18;;
65996;SDS011;52765;52.258;21.052;2023-03-16T05:47:49;28.98;;;10.35;;
65996;SDS011;52765;52.258;21.052;2023-03-16T05:50:16;24.95;;;9.98;;
65996;SDS011;52765;52.258;21.052;2023-03-16T05:52:42;22.05;;;9.18;;
65996;SDS011;52765;52.258;21.052;2023-03-16T05:55:10;20.63;;;9.65;;
65996;SDS011;52765;52.258;21.052;2023-03-16T05:57:36;26.75;;;9.63;;
65996;SDS011;52765;52.258;21.052;2023-03-16T06:00:07;27.15;;;9.65;;
65996;SDS011;52765;52.258;21.052;2023-03-16T06:02:40;21.80;;;9.55;;
65996;SDS011;52765;52.258;21.052;2023-03-16T06:05:11;29.58;;;9.98;;
65996;SDS011;52765;52.258;21.052;2023-03-16T06:07:36;23.38;;;9.80;;
65996;SDS011;52765;52.258;21.052;2023-03-16T06:10:02;30.15;;;10.27;;
65996;SDS011;52765;52.258;21.052;2023-03-16T06:12:29;24.23;;;9.32;;
65996;SDS011;52765;52.258;21.052;2023-03-16T06:14:55;23.45;;;9.02;;
65996;SDS011;52765;52.258;21.052;2023-03-16T06:17:20;33.90;;;10.98;;
65996;SDS011;52765;52.258;21.052;2023-03-16T06:19:46;25.58;;;9.25;;
65996;SDS011;52765;52.258;21.052;2023-03-16T06:22:12;26.40;;;9.75;;
65996;SDS011;52765;52.258;21.052;2023-03-16T06:24:37;24.48;;;9.82;;
65996;SDS011;52765;52.258;21.052;2023-03-16T06:27:03;24.13;;;8.73;;
65996;SDS011;52765;52.258;21.052;2023-03-16T06:29:28;27.10;;;9.85;;
65996;SDS011;52765;52.258;21.052;2023-03-16T06:31:54;25.00;;;8.55;;
65996;SDS011;52765;52.258;21.052;2023-03-16T06:34:21;28.77;;;9.52;;
65996;SDS011;52765;52.258;21.052;2023-03-16T06:36:46;26.38;;;8.52;;
65996;SDS011;52765;52.258;21.052;2023-03-16T06:39:12;25.25;;;9.93;;
65996;SDS011;52765;52.258;21.052;2023-03-16T06:41:38;19.38;;;8.27;;
65996;SDS011;52765;52.258;21.052;2023-03-16T06:44:06;28.27;;;8.93;;
65996;SDS011;52765;52.258;21.052;2023-03-16T06:46:32;16.38;;;8.25;;
65996;SDS011;52765;52.258;21.052;2023-03-16T06:48:57;55.00;;;22.85;;
65996;SDS011;52765;52.258;21.052;2023-03-16T06:51:24;30.92;;;9.68;;
65996;SDS011;52765;52.258;21.052;2023-03-16T06:53:50;22.15;;;9.77;;
65996;SDS011;52765;52.258;21.052;2023-03-16T06:56:17;22.40;;;8.95;;
65996;SDS011;52765;52.258;21.052;2023-03-16T06:58:42;21.10;;;8.10;;
65996;SDS011;52765;52.258;21.052;2023-03-16T07:01:08;25.25;;;9.60;;
65996;SDS011;52765;52.258;21.052;2023-03-16T07:03:33;24.95;;;8.38;;
65996;SDS011;52765;52.258;21.052;2023-03-16T07:05:59;24.38;;;9.02;;
65996;SDS011;52765;52.258;21.052;2023-03-16T07:08:24;20.83;;;9.25;;
65996;SDS011;52765;52.258;21.052;2023-03-16T07:10:50;23.33;;;8.48;;
65996;SDS011;52765;52.258;21.052;2023-03-16T07:13:16;30.13;;;9.98;;
65996;SDS011;52765;52.258;21.052;2023-03-16T07:15:42;21.77;;;8.90;;
65996;SDS011;52765;52.258;21.052;2023-03-16T07:18:08;22.88;;;9.00;;
65996;SDS011;52765;52.258;21.052;2023-03-16T07:20:36;24.27;;;9.25;;
65996;SDS011;52765;52.258;21.052;2023-03-16T07:23:02;22.15;;;9.13;;
65996;SDS011;52765;52.258;21.052;2023-03-16T07:25:28;22.50;;;9.27;;
65996;SDS011;52765;52.258;21.052;2023-03-16T07:27:55;23.77;;;9.10;;
65996;SDS011;52765;52.258;21.052;2023-03-16T07:30:21;24.05;;;9.02;;
65996;SDS011;52765;52.258;21.052;2023-03-16T07:32:49;28.20;;;8.50;;
65996;SDS011;52765;52.258;21.052;2023-03-16T07:35:15;21.95;;;7.93;;
65996;SDS011;52765;52.258;21.052;2023-03-16T07:37:41;21.17;;;8.85;;
65996;SDS011;52765;52.258;21.052;2023-03-16T07:40:07;24.92;;;9.00;;
65996;SDS011;52765;52.258;21.052;2023-03-16T07:42:34;19.13;;;8.80;;
65996;SDS011;52765;52.258;21.052;2023-03-16T07:45:01;28.77;;;9.23;;
65996;SDS011;52765;52.258;21.052;2023-03-16T07:47:27;22.35;;;9.05;;
65996;SDS011;52765;52.258;21.052;2023-03-16T07:49:54;19.77;;;8.27;;
65996;SDS011;52765;52.258;21.052;2023-03-16T07:52:20;21.15;;;8.15;;
65996;SDS011;52765;52.258;21.052;2023-03-16T07:54:45;21.02;;;7.88;;
65996;SDS011;52765;52.258;21.052;2023-03-16T07:57:13;18.67;;;8.52;;
65996;SDS011;52765;52.258;21.052;2023-03-16T07:59:38;24.20;;;8.60;;
65996;SDS011;52765;52.258;21.052;2023-03-16T08:02:13;21.35;;;8.65;;
65996;SDS011;52765;52.258;21.052;2023-03-16T08:04:40;20.63;;;9.02;;
65996;SDS011;52765;52.258;21.052;2023-03-16T08:07:07;26.55;;;9.35;;
65996;SDS011;52765;52.258;21.052;2023-03-16T08:09:36;19.63;;;9.20;;
65996;SDS011;52765;52.258;21.052;2023-03-16T08:12:02;19.75;;;8.77;;
65996;SDS011;52765;52.258;21.052;2023-03-16T08:14:29;24.85;;;9.73;;
65996;SDS011;52765;52.258;21.052;2023-03-16T08:16:58;20.90;;;8.60;;
65996;SDS011;52765;52.258;21.052;2023-03-16T08:19:23;15.63;;;7.28;;
65996;SDS011;52765;52.258;21.052;2023-03-16T08:21:49;15.07;;;7.18;;
65996;SDS011;52765;52.258;21.052;2023-03-16T08:24:15;20.75;;;8.50;;
65996;SDS011;52765;52.258;21.052;2023-03-16T08:26:42;18.33;;;6.80;;
65996;SDS011;52765;52.258;21.052;2023-03-16T08:29:07;13.80;;;5.40;;
65996;SDS011;52765;52.258;21.052;2023-03-16T08:31:33;21.77;;;7.35;;
65996;SDS011;52765;52.258;21.052;2023-03-16T08:34:01;16.20;;;7.32;;
65996;SDS011;52765;52.258;21.052;2023-03-16T08:36:27;19.48;;;6.93;;
65996;SDS011;52765;52.258;21.052;2023-03-16T08:38:56;18.77;;;7.82;;
65996;SDS011;52765;52.258;21.052;2023-03-16T08:41:25;17.27;;;7.80;;
65996;SDS011;52765;52.258;21.052;2023-03-16T08:43:54;21.67;;;9.38;;
65996;SDS011;52765;52.258;21.052;2023-03-16T08:46:21;18.52;;;8.23;;
65996;SDS011;52765;52.258;21.052;2023-03-16T08:48:48;22.08;;;8.02;;
65996;SDS011;52765;52.258;21.052;2023-03-16T08:51:14;16.80;;;8.40;;
65996;SDS011;52765;52.258;21.052;2023-03-16T08:53:41;26.05;;;8.80;;
65996;SDS011;52765;52.258;21.052;2023-03-16T08:56:09;20.45;;;8.23;;
65996;SDS011;52765;52.258;21.052;2023-03-16T08:58:36;17.83;;;7.28;;
65996;SDS011;52765;52.258;21.052;2023-03-16T09:01:04;16.70;;;7.47;;
65996;SDS011;52765;52.258;21.052;2023-03-16T09:03:32;19.45;;;7.70;;
65996;SDS011;52765;52.258;21.052;2023-03-16T09:06:02;17.63;;;7.35;;
65996;SDS011;52765;52.258;21.052;2023-03-16T09:08:30;20.15;;;8.18;;
65996;SDS011;52765;52.258;21.052;2023-03-16T09:10:59;17.42;;;7.82;;
65996;SDS011;52765;52.258;21.052;2023-03-16T09:13:30;18.05;;;8.07;;
65996;SDS011;52765;52.258;21.052;2023-03-16T09:15:55;15.88;;;7.47;;
65996;SDS011;52765;52.258;21.052;2023-03-16T09:18:22;13.25;;;6.78;;
65996;SDS011;52765;52.258;21.052;2023-03-16T09:20:50;16.27;;;7.05;;
65996;SDS011;52765;52.258;21.052;2023-03-16T09:23:16;17.38;;;7.00;;
65996;SDS011;52765;52.258;21.052;2023-03-16T09:25:43;14.13;;;7.00;;
65996;SDS011;52765;52.258;21.052;2023-03-16T09:28:09;22.42;;;8.70;;
65996;SDS011;52765;52.258;21.052;2023-03-16T09:30:35;13.50;;;6.28;;
65996;SDS011;52765;52.258;21.052;2023-03-16T09:33:01;14.02;;;5.88;;
65996;SDS011;52765;52.258;21.052;2023-03-16T09:35:28;12.18;;;5.65;;
65996;SDS011;52765;52.258;21.052;2023-03-16T09:37:54;20.33;;;6.45;;
65996;SDS011;52765;52.258;21.052;2023-03-16T09:40:26;12.18;;;6.15;;
65996;SDS011;52765;52.258;21.052;2023-03-16T09:48:37;14.45;;;5.80;;
65996;SDS011;52765;52.258;21.052;2023-03-16T09:51:06;16.20;;;6.13;;
65996;SDS011;52765;52.258;21.052;2023-03-16T09:53:39;12.18;;;4.85;;
65996;SDS011;52765;52.258;21.052;2023-03-16T09:56:08;13.00;;;5.22;;
65996;SDS011;52765;52.258;21.052;2023-03-16T09:58:37;16.30;;;5.85;;
65996;SDS011;52765;52.258;21.052;2023-03-16T10:06:43;8.80;;;4.25;;
65996;SDS011;52765;52.258;21.052;2023-03-16T10:09:33;13.23;;;5.53;;
65996;SDS011;52765;52.258;21.052;2023-03-16T10:12:06;11.65;;;4.63;;
65996;SDS011;52765;52.258;21.052;2023-03-16T10:14:39;11.07;;;4.72;;
65996;SDS011;52765;52.258;21.052;2023-03-16T10:17:52;11.57;;;4.93;;
65996;SDS011;52765;52.258;21.052;2023-03-16T10:20:18;12.13;;;4.97;;
65996;SDS011;52765;52.258;21.052;2023-03-16T10:22:49;11.73;;;5.30;;
65996;SDS011;52765;52.258;21.052;2023-03-16T10:27:57;10.48;;;4.93;;
65996;SDS011;52765;52.258;21.052;2023-03-16T10:30:27;9.95;;;4.28;;
65996;SDS011;52765;52.258;21.052;2023-03-16T10:33:00;12.65;;;4.15;;
65996;SDS011;52765;52.258;21.052;2023-03-16T10:35:48;8.88;;;3.45;;
65996;SDS011;52765;52.258;21.052;2023-03-16T10:38:25;9.05;;;3.88;;
65996;SDS011;52765;52.258;21.052;2023-03-16T10:43:30;4.82;;;2.80;;
65996;SDS011;52765;52.258;21.052;2023-03-16T10:45:57;8.88;;;3.50;;
65996;SDS011;52765;52.258;21.052;2023-03-16T10:48:26;9.32;;;3.55;;
65996;SDS011;52765;52.258;21.052;2023-03-16T10:50:56;10.25;;;4.20;;
65996;SDS011;52765;52.258;21.052;2023-03-16T10:53:30;10.05;;;4.68;;
65996;SDS011;52765;52.258;21.052;2023-03-16T10:56:01;11.10;;;4.25;;
65996;SDS011;52765;52.258;21.052;2023-03-16T10:58:38;10.07;;;4.30;;
65996;SDS011;52765;52.258;21.052;2023-03-16T11:01:24;12.40;;;4.35;;
65996;SDS011;52765;52.258;21.052;2023-03-16T11:03:53;11.15;;;4.30;;
65996;SDS011;52765;52.258;21.052;2023-03-16T11:08:48;13.50;;;5.43;;
65996;SDS011;52765;52.258;21.052;2023-03-16T11:13:59;10.35;;;4.13;;
65996;SDS011;52765;52.258;21.052;2023-03-16T11:19:20;14.95;;;4.97;;
65996;SDS011;52765;52.258;21.052;2023-03-16T11:24:22;13.95;;;4.30;;
65996;SDS011;52765;52.258;21.052;2023-03-16T11:27:13;10.50;;;4.35;;
65996;SDS011;52765;52.258;21.052;2023-03-16T11:30:07;6.95;;;3.95;;
65996;SDS011;52765;52.258;21.052;2023-03-16T11:32:36;13.23;;;3.95;;
65996;SDS011;52765;52.258;21.052;2023-03-16T11:35:19;10.35;;;3.95;;
65996;SDS011;52765;52.258;21.052;2023-03-16T11:41:09;6.78;;;3.00;;
65996;SDS011;52765;52.258;21.052;2023-03-16T11:51:34;15.00;;;3.75;;
65996;SDS011;52765;52.258;21.052;2023-03-16T11:57:05;9.15;;;4.05;;
65996;SDS011;52765;52.258;21.052;2023-03-16T12:02:24;12.90;;;4.00;;
65996;SDS011;52765;52.258;21.052;2023-03-16T12:18:07;11.27;;;3.83;;
65996;SDS011;52765;52.258;21.052;2023-03-16T12:21:32;15.45;;;4.20;;
65996;SDS011;52765;52.258;21.052;2023-03-16T12:23:56;10.73;;;3.95;;
65996;SDS011;52765;52.258;21.052;2023-03-16T12:26:37;14.48;;;3.50;;
65996;SDS011;52765;52.258;21.052;2023-03-16T12:37:56;15.73;;;4.03;;
65996;SDS011;52765;52.258;21.052;2023-03-16T12:48:59;13.48;;;4.32;;
65996;SDS011;52765;52.258;21.052;2023-03-16T12:51:32;15.38;;;5.20;;
65996;SDS011;52765;52.258;21.052;2023-03-16T12:53:58;17.55;;;3.95;;
65996;SDS011;52765;52.258;21.052;2023-03-16T12:56:28;14.30;;;4.28;;
65996;SDS011;52765;52.258;21.052;2023-03-16T12:58:57;10.13;;;4.07;;
65996;SDS011;52765;52.258;21.052;2023-03-16T13:01:26;17.00;;;4.35;;
65996;SDS011;52765;52.258;21.052;2023-03-16T13:04:00;18.60;;;4.57;;
65996;SDS011;52765;52.258;21.052;2023-03-16T13:06:34;11.52;;;3.75;;
65996;SDS011;52765;52.258;21.052;2023-03-16T13:09:01;11.00;;;3.85;;
65996;SDS011;52765;52.258;21.052;2023-03-16T13:11:40;10.18;;;3.35;;
65996;SDS011;52765;52.258;21.052;2023-03-16T13:14:15;10.00;;;3.53;;
65996;SDS011;52765;52.258;21.052;2023-03-16T13:17:01;12.98;;;3.75;;
65996;SDS011;52765;52.258;21.052;2023-03-16T13:19:30;10.20;;;3.05;;
65996;SDS011;52765;52.258;21.052;2023-03-16T13:22:16;12.18;;;3.30;;
65996;SDS011;52765;52.258;21.052;2023-03-16T13:24:52;12.50;;;3.63;;
65996;SDS011;52765;52.258;21.052;2023-03-16T13:27:36;13.90;;;3.60;;
65996;SDS011;52765;52.258;21.052;2023-03-16T13:30:17;18.20;;;3.65;;
65996;SDS011;52765;52.258;21.052;2023-03-16T13:32:44;17.25;;;3.95;;
65996;SDS011;52765;52.258;21.052;2023-03-16T13:35:14;15.27;;;3.22;;
65996;SDS011;52765;52.258;21.052;2023-03-16T13:37:42;10.30;;;3.10;;
65996;SDS011;52765;52.258;21.052;2023-03-16T13:40:16;11.88;;;3.30;;
65996;SDS011;52765;52.258;21.052;2023-03-16T13:42:45;7.85;;;3.08;;
65996;SDS011;52765;52.258;21.052;2023-03-16T13:45:18;14.10;;;3.53;;
65996;SDS011;52765;52.258;21.052;2023-03-16T13:48:04;10.02;;;3.33;;
65996;SDS011;52765;52.258;21.052;2023-03-16T13:50:33;15.82;;;3.60;;
65996;SDS011;52765;52.258;21.052;2023-03-16T13:53:03;9.77;;;3.00;;
65996;SDS011;52765;52.258;21.052;2023-03-16T13:58:01;8.15;;;3.63;;
65996;SDS011;52765;52.258;21.052;2023-03-16T14:00:33;13.45;;;3.45;;
65996;SDS011;52765;52.258;21.052;2023-03-16T14:03:02;11.45;;;3.72;;
65996;SDS011;52765;52.258;21.052;2023-03-16T14:05:33;13.95;;;3.78;;
65996;SDS011;52765;52.258;21.052;2023-03-16T14:08:00;14.85;;;3.35;;
65996;SDS011;52765;52.258;21.052;2023-03-16T14:10:30;11.10;;;3.78;;
65996;SDS011;52765;52.258;21.052;2023-03-16T14:15:46;9.10;;;3.08;;
65996;SDS011;52765;52.258;21.052;2023-03-16T14:18:15;17.67;;;3.40;;
65996;SDS011;52765;52.258;21.052;2023-03-16T14:20:45;11.65;;;3.00;;
65996;SDS011;52765;52.258;21.052;2023-03-16T14:23:22;8.65;;;2.92;;
65996;SDS011;52765;52.258;21.052;2023-03-16T14:25:50;13.27;;;3.58;;
65996;SDS011;52765;52.258;21.052;2023-03-16T14:28:18;12.77;;;3.72;;
65996;SDS011;52765;52.258;21.052;2023-03-16T14:31:04;14.65;;;3.22;;
65996;SDS011;52765;52.258;21.052;2023-03-16T14:33:36;11.05;;;3.40;;
65996;SDS011;52765;52.258;21.052;2023-03-16T14:36:15;12.10;;;2.88;;
65996;SDS011;52765;52.258;21.052;2023-03-16T14:38:43;13.52;;;2.83;;
65996;SDS011;52765;52.258;21.052;2023-03-16T14:43:45;10.77;;;2.60;;
65996;SDS011;52765;52.258;21.052;2023-03-16T14:46:14;12.63;;;3.13;;
65996;SDS011;52765;52.258;21.052;2023-03-16T14:48:43;9.82;;;2.65;;
65996;SDS011;52765;52.258;21.052;2023-03-16T14:51:11;7.88;;;2.80;;
65996;SDS011;52765;52.258;21.052;2023-03-16T14:53:38;7.57;;;2.83;;
65996;SDS011;52765;52.258;21.052;2023-03-16T14:56:08;13.05;;;3.00;;
65996;SDS011;52765;52.258;21.052;2023-03-16T14:58:35;12.82;;;2.72;;
65996;SDS011;52765;52.258;21.052;2023-03-16T15:01:00;10.85;;;3.25;;
65996;SDS011;52765;52.258;21.052;2023-03-16T15:03:30;13.07;;;3.05;;
65996;SDS011;52765;52.258;21.052;2023-03-16T15:05:58;11.55;;;3.20;;
65996;SDS011;52765;52.258;21.052;2023-03-16T15:08:25;6.80;;;2.13;;
65996;SDS011;52765;52.258;21.052;2023-03-16T15:10:56;11.18;;;3.45;;
65996;SDS011;52765;52.258;21.052;2023-03-16T15:13:24;12.13;;;2.80;;
65996;SDS011;52765;52.258;21.052;2023-03-16T15:16:08;9.25;;;2.67;;
65996;SDS011;52765;52.258;21.052;2023-03-16T15:18:35;60.67;;;22.27;;
65996;SDS011;52765;52.258;21.052;2023-03-16T15:21:03;6.38;;;2.35;;
65996;SDS011;52765;52.258;21.052;2023-03-16T15:23:34;8.35;;;2.53;;
65996;SDS011;52765;52.258;21.052;2023-03-16T15:25:59;10.60;;;2.45;;
65996;SDS011;52765;52.258;21.052;2023-03-16T15:28:27;11.65;;;2.45;;
65996;SDS011;52765;52.258;21.052;2023-03-16T15:30:55;5.10;;;1.88;;
65996;SDS011;52765;52.258;21.052;2023-03-16T15:33:22;7.90;;;2.53;;
65996;SDS011;52765;52.258;21.052;2023-03-16T15:35:49;5.30;;;2.17;;
65996;SDS011;52765;52.258;21.052;2023-03-16T15:38:20;10.60;;;3.08;;
65996;SDS011;52765;52.258;21.052;2023-03-16T15:40:48;12.00;;;2.40;;
65996;SDS011;52765;52.258;21.052;2023-03-16T15:43:17;8.23;;;2.55;;
65996;SDS011;52765;52.258;21.052;2023-03-16T15:45:44;10.23;;;2.47;;
65996;SDS011;52765;52.258;21.052;2023-03-16T15:48:12;12.50;;;2.65;;
65996;SDS011;52765;52.258;21.052;2023-03-16T15:50:39;5.88;;;1.92;;
65996;SDS011;52765;52.258;21.052;2023-03-16T15:53:19;13.38;;;2.90;;
65996;SDS011;52765;52.258;21.052;2023-03-16T15:55:51;15.55;;;3.70;;
65996;SDS011;52765;52.258;21.052;2023-03-16T15:58:21;8.02;;;2.80;;
65996;SDS011;52765;52.258;21.052;2023-03-16T16:00:49;10.82;;;2.60;;
65996;SDS011;52765;52.258;21.052;2023-03-16T16:03:19;7.72;;;2.50;;